Time;durP1;ratioP1;P1;durP2;ratioP2;P2;SDS_P1;SDS_P2;PMS_P1;PMS_P2;Temp;Humidity;BMP_temperature;BMP_pressure;BME280_temperature;BME280_humidity;BME280_pressure;Samples;Min_cycle;Max_cycle;Signal;HPM_P1;HPM_P2
2023/05/26 00:00:55;;;;;;;3.73;2.60;;;;;;;15.70;100.00;99279.31;5074241;28;20280;-79
2023/05/26 00:03:22;;;;;;;4.30;2.60;;;;;;;15.73;100.00;99278.22;5073599;28;20235;-79
2023/05/26 00:05:49;;;;;;;10.00;2.77;;;;;;;15.61;100.00;99275.75;5074158;28;20626;-79
2023/05/26 00:08:16;;;;;;;3.20;2.50;;;;;;;15.66;100.00;99271.97;5074128;28;20207;-79
2023/05/26 00:10:43;;;;;;;4.77;2.70;;;;;;;15.66;100.00;99271.97;5073595;28;20226;-79
2023/05/26 00:13:09;;;;;;;3.80;2.53;;;;;;;15.70;100.00;99271.56;5074108;28;20224;-79
2023/05/26 00:15:36;;;;;;;5.20;2.80;;;;;;;15.71;100.00;99264.69;5074237;28;20211;-79
2023/05/26 00:18:05;;;;;;;5.37;2.87;;;;;;;15.79;100.00;99249.31;5074770;28;20262;-79
2023/05/26 00:20:32;;;;;;;4.53;2.47;;;;;;;15.81;100.00;99244.81;5073433;28;20223;-79
2023/05/26 00:22:59;;;;;;;8.03;2.90;;;;;;;15.75;100.00;99241.03;5073273;28;20199;-79
2023/05/26 00:25:26;;;;;;;6.30;2.53;;;;;;;15.73;100.00;99237.78;5073241;28;20514;-79
2023/05/26 00:27:53;;;;;;;3.63;2.23;;;;;;;15.69;100.00;99235.63;5073572;28;20221;-79
2023/05/26 00:30:20;;;;;;;3.37;2.70;;;;;;;15.71;100.00;99233.75;5073278;28;20219;-79
2023/05/26 00:32:47;;;;;;;7.63;2.60;;;;;;;15.71;100.00;99229.41;5073518;28;20200;-79
2023/05/26 00:35:15;;;;;;;4.37;2.60;;;;;;;15.74;100.00;99233.47;5073782;28;20224;-79
2023/05/26 00:37:42;;;;;;;3.13;2.17;;;;;;;15.76;100.00;99226.38;5073153;28;20209;-79
2023/05/26 00:40:10;;;;;;;3.43;2.43;;;;;;;15.78;100.00;99219.31;5073786;28;20229;-79
2023/05/26 00:42:37;;;;;;;5.03;2.40;;;;;;;15.83;100.00;99217.16;5073044;28;20254;-79
2023/05/26 00:45:05;;;;;;;2.77;2.00;;;;;;;15.83;100.00;99217.16;5073582;28;20238;-79
2023/05/26 00:47:31;;;;;;;5.07;2.87;;;;;;;15.72;100.00;99214.75;5072491;28;20206;-79
2023/05/26 00:49:58;;;;;;;4.23;2.60;;;;;;;15.77;100.00;99217.72;5073921;28;20219;-79
2023/05/26 00:52:27;;;;;;;2.87;2.20;;;;;;;15.70;100.00;99216.63;5073660;28;20221;-79
2023/05/26 00:54:54;;;;;;;5.33;2.73;;;;;;;15.60;100.00;99219.22;5073125;28;20222;-79
2023/05/26 00:57:21;;;;;;;4.37;2.63;;;;;;;15.54;100.00;99223.16;5073356;28;20562;-79
2023/05/26 00:59:50;;;;;;;4.57;2.63;;;;;;;15.49;100.00;99220.19;5073224;28;20811;-79
2023/05/26 01:02:20;;;;;;;3.40;2.27;;;;;;;15.55;100.00;99219.63;5072073;28;20211;-79
2023/05/26 01:04:52;;;;;;;3.67;2.40;;;;;;;15.59;100.00;99221.00;5073243;28;20242;-79
2023/05/26 01:07:19;;;;;;;3.67;2.50;;;;;;;15.60;100.00;99221.78;5072072;28;20203;-79
2023/05/26 01:09:48;;;;;;;3.30;2.43;;;;;;;15.67;100.00;99216.88;5072151;28;20215;-79
2023/05/26 01:12:21;;;;;;;4.00;2.83;;;;;;;15.67;100.00;99216.88;5073376;28;20210;-79
2023/05/26 01:14:54;;;;;;;3.47;2.43;;;;;;;15.55;100.00;99224.78;5072540;28;20242;-79
2023/05/26 01:17:25;;;;;;;3.90;2.57;;;;;;;15.58;100.00;99208.22;5072262;28;20206;-79
2023/05/26 01:20:08;;;;;;;3.70;2.43;;;;;;;15.48;100.00;99213.41;5072592;28;20220;-79
2023/05/26 01:23:07;;;;;;;4.90;2.37;;;;;;;15.55;100.00;99214.47;5071883;28;20213;-79
2023/05/26 01:25:50;;;;;;;3.00;2.03;;;;;;;15.56;100.00;99212.69;5072453;28;20237;-79
2023/05/26 01:28:21;;;;;;;2.83;2.07;;;;;;;15.54;100.00;99206.91;5071881;28;20279;-79
2023/05/26 01:30:49;;;;;;;2.10;1.87;;;;;;;15.56;100.00;99203.22;5072610;28;20274;-79
2023/05/26 01:33:16;;;;;;;3.37;2.30;;;;;;;15.60;100.00;99196.03;5072530;28;20208;-79
2023/05/26 01:35:44;;;;;;;2.60;2.10;;;;;;;15.57;100.00;99186.81;5072064;28;20229;-79
2023/05/26 01:38:12;;;;;;;2.90;1.80;;;;;;;15.47;100.00;99183.44;5071781;28;20211;-79
2023/05/26 01:40:43;;;;;;;2.77;1.70;;;;;;;15.45;100.00;99172.47;5072216;28;20255;-79
2023/05/26 01:43:17;;;;;;;4.03;2.10;;;;;;;15.51;100.00;99177.06;5071996;28;20213;-79
2023/05/26 01:45:53;;;;;;;4.03;2.33;;;;;;;15.48;100.00;99176.53;5071750;28;20269;-80
2023/05/26 01:48:20;;;;;;;2.37;1.77;;;;;;;15.44;100.00;99175.16;5071873;28;20202;-79
2023/05/26 01:50:51;;;;;;;4.13;2.40;;;;;;;15.38;100.00;99171.38;5071708;28;20219;-79
2023/05/26 01:53:21;;;;;;;2.80;1.87;;;;;;;15.41;100.00;99171.09;5072162;28;20580;-79
2023/05/26 01:55:51;;;;;;;3.47;2.17;;;;;;;15.44;100.00;99175.97;5071836;28;20698;-79
2023/05/26 01:58:18;;;;;;;2.77;1.70;;;;;;;15.40;100.00;99179.78;5071713;28;20203;-79
2023/05/26 02:00:50;;;;;;;3.07;2.00;;;;;;;15.42;100.00;99183.06;5072477;28;20226;-79
2023/05/26 02:03:17;;;;;;;3.63;2.27;;;;;;;15.43;100.00;99178.72;5072162;28;20280;-79
2023/05/26 02:05:44;;;;;;;2.93;2.10;;;;;;;15.43;100.00;99186.44;5072224;28;20255;-79
2023/05/26 02:08:11;;;;;;;5.20;2.30;;;;;;;15.42;100.00;99177.91;5071558;28;20214;-79
2023/05/26 02:10:38;;;;;;;3.03;2.20;;;;;;;15.41;100.00;99171.09;5071200;28;20224;-79
2023/05/26 02:13:05;;;;;;;7.10;1.80;;;;;;;15.35;100.00;99171.66;5072055;28;20197;-79
2023/05/26 02:15:32;;;;;;;3.63;2.20;;;;;;;15.30;100.00;99174.66;5071594;28;20629;-79
2023/05/26 02:18:02;;;;;;;2.70;1.90;;;;;;;15.30;100.00;99179.00;5071505;28;20201;-79
2023/05/26 02:20:30;;;;;;;4.43;2.00;;;;;;;15.31;100.00;99180.63;5071654;28;20246;-79
2023/05/26 02:22:56;;;;;;;2.50;1.93;;;;;;;15.37;100.00;99185.22;5071520;28;20200;-79
2023/05/26 02:25:23;;;;;;;2.47;1.70;;;;;;;15.36;100.00;99183.63;5072136;28;20257;-79
2023/05/26 02:27:50;;;;;;;3.23;2.20;;;;;;;15.27;100.00;99181.84;5071020;28;20209;-79
2023/05/26 02:30:18;;;;;;;4.83;2.17;;;;;;;15.29;100.00;99187.69;5072082;28;20231;-79
2023/05/26 02:32:45;;;;;;;3.67;2.20;;;;;;;15.32;100.00;99187.41;5071174;28;20194;-79
2023/05/26 02:35:13;;;;;;;4.57;2.30;;;;;;;15.37;100.00;99190.38;5071699;28;20623;-79
2023/05/26 02:37:41;;;;;;;2.87;2.00;;;;;;;15.39;100.00;99194.44;5071349;28;20208;-79
2023/05/26 02:40:10;;;;;;;3.70;1.80;;;;;;;15.40;100.00;99180.59;5071904;28;20749;-79
2023/05/26 02:42:37;;;;;;;3.93;2.20;;;;;;;15.53;100.00;99187.22;5071355;28;20205;-79
2023/05/26 02:45:04;;;;;;;3.97;2.53;;;;;;;15.50;100.00;99183.16;5070924;28;20231;-79
2023/05/26 02:47:31;;;;;;;5.97;2.33;;;;;;;15.47;100.00;99175.69;5071063;28;20669;-79
2023/05/26 02:49:58;;;;;;;4.33;2.73;;;;;;;15.49;100.00;99180.72;5071361;28;20223;-79
2023/05/26 02:52:27;;;;;;;2.70;1.90;;;;;;;15.55;100.00;99177.59;5071014;28;20204;-79
2023/05/26 02:54:53;;;;;;;3.00;2.10;;;;;;;15.59;100.00;99179.75;5071660;28;20574;-79
2023/05/26 02:57:20;;;;;;;4.33;2.10;;;;;;;15.58;100.00;99183.25;5071552;28;20203;-79
2023/05/26 02:59:47;;;;;;;2.90;2.23;;;;;;;15.65;100.00;99180.97;5071434;28;20232;-80
2023/05/26 03:02:14;;;;;;;2.37;1.90;;;;;;;15.72;100.00;99186.38;5070874;28;20195;-79
2023/05/26 03:04:41;;;;;;;2.97;1.90;;;;;;;15.74;100.00;99181.91;5070984;28;20222;-79
2023/05/26 03:07:08;;;;;;;3.43;2.40;;;;;;;15.82;100.00;99189.72;5070905;28;20238;-79
2023/05/26 03:09:37;;;;;;;2.80;1.90;;;;;;;15.83;100.00;99199.09;5070833;28;20210;-78
2023/05/26 03:12:05;;;;;;;2.93;1.90;;;;;;;15.84;100.00;99204.09;5070884;28;20263;-79
2023/05/26 03:14:33;;;;;;;3.73;2.43;;;;;;;15.87;100.00;99197.84;5070973;28;20199;-79
2023/05/26 03:17:00;;;;;;;6.87;2.17;;;;;;;15.84;100.00;99203.28;5071044;28;20229;-79
2023/05/26 03:19:27;;;;;;;3.13;2.07;;;;;;;15.91;100.00;99214.69;5070594;28;20663;-79
2023/05/26 03:21:55;;;;;;;4.63;2.17;;;;;;;15.93;100.00;99206.78;5070809;28;20206;-79
2023/05/26 03:24:22;;;;;;;2.13;1.83;;;;;;;15.92;100.00;99205.97;5070956;28;20229;-79
2023/05/26 03:26:51;;;;;;;2.90;2.10;;;;;;;15.94;100.00;99203.25;5070633;28;20714;-79
2023/05/26 03:29:18;;;;;;;5.07;2.37;;;;;;;15.88;100.00;99209.78;5071887;28;20701;-79
2023/05/26 03:31:45;;;;;;;2.57;2.00;;;;;;;15.84;100.00;99211.84;5072521;28;20615;-79
2023/05/26 03:34:12;;;;;;;2.97;2.17;;;;;;;15.79;100.00;99218.38;5075645;28;20259;-79
2023/05/26 03:36:39;;;;;;;3.00;1.97;;;;;;;15.87;100.00;99222.81;5074242;28;20758;-79
2023/05/26 03:39:06;;;;;;;3.63;2.07;;;;;;;15.88;100.00;99225.25;5074753;28;20199;-79
2023/05/26 03:41:34;;;;;;;2.50;1.93;;;;;;;15.95;100.00;99228.91;5074485;28;20238;-79
2023/05/26 03:44:02;;;;;;;2.33;1.70;;;;;;;15.98;100.00;99218.31;5074628;28;20201;-79
2023/05/26 03:46:29;;;;;;;3.53;2.37;;;;;;;16.04;100.00;99220.31;5074339;28;20242;-79
2023/05/26 03:48:56;;;;;;;2.40;1.83;;;;;;;16.07;100.00;99225.19;5074196;28;20236;-79
2023/05/26 03:51:23;;;;;;;3.20;2.07;;;;;;;16.09;100.00;99217.31;5073974;28;20224;-79
2023/05/26 03:53:49;;;;;;;2.60;2.10;;;;;;;16.09;100.00;99226.81;5074643;28;20260;-79
2023/05/26 03:56:16;;;;;;;3.57;2.37;;;;;;;16.04;100.00;99230.63;5073862;28;20219;-79
2023/05/26 03:58:43;;;;;;;3.97;2.07;;;;;;;16.09;100.00;99231.97;5074504;28;20202;-79
2023/05/26 04:01:12;;;;;;;3.03;2.10;;;;;;;16.15;100.00;99241.72;5073903;28;20238;-79
2023/05/26 04:03:39;;;;;;;2.83;2.07;;;;;;;16.16;100.00;99241.56;5074636;28;20200;-79
2023/05/26 04:06:06;;;;;;;3.77;2.53;;;;;;;16.20;100.00;99239.50;5073465;28;20620;-79
2023/05/26 04:08:33;;;;;;;2.00;1.60;;;;;;;16.22;100.00;99242.75;5074861;28;20589;-78
2023/05/26 04:11:00;;;;;;;2.40;2.00;;;;;;;16.23;100.00;99244.38;5074200;28;20211;-78
2023/05/26 04:13:27;;;;;;;3.47;1.80;;;;;;;16.25;100.00;99237.31;5074134;28;20203;-79
2023/05/26 04:15:53;;;;;;;4.33;2.07;;;;;;;16.26;100.00;99249.25;5073550;28;20238;-79
2023/05/26 04:18:23;;;;;;;3.30;1.93;;;;;;;16.24;100.00;99240.88;5074400;28;20202;-79
2023/05/26 04:20:50;;;;;;;3.37;1.97;;;;;;;16.18;100.00;99239.66;5073941;28;20226;-79
2023/05/26 04:23:17;;;;;;;2.33;1.83;;;;;;;16.20;100.00;99242.09;5073538;28;20698;-79
2023/05/26 04:25:44;;;;;;;2.60;2.00;;;;;;;16.23;100.00;99239.22;5072829;28;20250;-79
2023/05/26 04:28:11;;;;;;;3.10;2.00;;;;;;;16.32;100.00;99243.56;5073838;28;20221;-79
2023/05/26 04:30:39;;;;;;;3.63;2.43;;;;;;;16.39;100.00;99242.00;5073599;28;20222;-79
2023/05/26 04:33:07;;;;;;;2.60;1.80;;;;;;;16.47;100.00;99236.94;5074008;28;20290;-79
2023/05/26 04:35:35;;;;;;;3.57;2.20;;;;;;;16.52;100.00;99246.81;5073524;28;20219;-79
2023/05/26 04:38:04;;;;;;;3.77;2.50;;;;;;;16.57;100.00;99247.19;5073302;28;20209;-79
2023/05/26 04:40:32;;;;;;;6.63;1.90;;;;;;;16.66;100.00;99251.47;5073550;28;20283;-79
2023/05/26 04:43:00;;;;;;;2.57;2.13;;;;;;;16.62;100.00;99249.34;5072923;28;20237;-78
2023/05/26 04:45:26;;;;;;;4.37;2.70;;;;;;;16.69;100.00;99250.38;5073822;28;20219;-79
2023/05/26 04:47:54;;;;;;;3.20;2.37;;;;;;;16.75;100.00;99249.78;5073398;28;20266;-79
2023/05/26 04:50:23;;;;;;;2.37;1.73;;;;;;;16.85;100.00;99250.59;5072989;28;20227;-79
2023/05/26 04:52:51;;;;;;;3.50;2.40;;;;;;;16.90;100.00;99250.97;5073832;28;20663;-79
2023/05/26 04:55:18;;;;;;;3.47;2.47;;;;;;;16.94;100.00;99260.03;5073349;28;20219;-78
2023/05/26 04:57:45;;;;;;;3.87;2.10;;;;;;;16.99;100.00;99246.69;5073155;28;20715;-79
2023/05/26 05:00:14;;;;;;;2.60;2.13;;;;;;;17.09;100.00;99251.75;5073271;28;20220;-79
2023/05/26 05:02:41;;;;;;;3.13;1.90;;;;;;;17.20;100.00;99254.13;5073560;28;20207;-79
2023/05/26 05:05:08;;;;;;;5.27;2.50;;;;;;;17.28;100.00;99261.09;5072332;28;20256;-79
2023/05/26 05:07:35;;;;;;;3.30;2.37;;;;;;;17.36;100.00;99259.41;5073297;28;20311;-79
2023/05/26 05:10:04;;;;;;;3.27;2.33;;;;;;;17.46;100.00;99258.53;5072963;28;20227;-79
2023/05/26 05:12:31;;;;;;;2.57;2.17;;;;;;;17.58;100.00;99265.06;5072946;28;20202;-78
2023/05/26 05:14:58;;;;;;;2.83;2.03;;;;;;;17.73;100.00;99265.31;5072850;28;20451;-79
2023/05/26 05:17:24;;;;;;;3.63;2.20;;;;;;;17.85;100.00;99262.34;5072511;28;20217;-79
2023/05/26 05:19:51;;;;;;;3.57;2.30;;;;;;;17.97;100.00;99267.25;5073567;28;20234;-79
2023/05/26 05:22:18;;;;;;;3.03;2.27;;;;;;;18.05;100.00;99259.53;5073518;28;20200;-78
2023/05/26 05:24:45;;;;;;;6.20;2.47;;;;;;;18.09;100.00;99266.03;5073679;28;20233;-78
2023/05/26 05:27:13;;;;;;;2.87;2.03;;;;;;;18.08;100.00;99269.59;5072598;28;20245;-78
2023/05/26 05:29:40;;;;;;;5.47;2.10;;;;;;;18.06;100.00;99271.50;5071831;28;20219;-78
2023/05/26 05:32:07;;;;;;;2.90;1.87;;;;;;;18.08;100.00;99270.38;5072613;28;20359;-79
2023/05/26 05:34:34;;;;;;;3.03;2.10;;;;;;;18.18;100.00;99277.22;5074031;28;20207;-78
2023/05/26 05:37:01;;;;;;;2.70;1.97;;;;;;;18.22;100.00;99276.78;5074116;28;20209;-79
2023/05/26 05:39:28;;;;;;;2.63;2.00;;;;;;;18.31;100.00;99281.00;5073084;28;20210;-78
2023/05/26 05:41:55;;;;;;;3.60;1.90;;;;;;;18.33;100.00;99280.88;5073191;28;20210;-78
2023/05/26 05:44:23;;;;;;;2.50;2.00;;;;;;;18.22;100.00;99281.94;5073635;28;20198;-78
2023/05/26 05:46:50;;;;;;;4.53;2.20;;;;;;;18.23;100.00;99283.56;5073769;28;20233;-78
2023/05/26 05:49:16;;;;;;;3.37;2.10;;;;;;;18.27;100.00;99289.25;5072877;28;20237;-78
2023/05/26 05:51:43;;;;;;;3.80;1.80;;;;;;;18.36;100.00;99284.94;5074763;28;20234;-78
2023/05/26 05:54:10;;;;;;;2.33;1.83;;;;;;;18.45;100.00;99286.56;5072150;28;20567;-79
2023/05/26 05:56:37;;;;;;;3.93;2.13;;;;;;;18.49;100.00;99287.88;5073481;28;20226;-78
2023/05/26 05:59:05;;;;;;;3.30;1.70;;;;;;;18.43;100.00;99283.31;5074819;28;20199;-78
2023/05/26 06:01:33;;;;;;;2.20;1.77;;;;;;;18.45;100.00;99287.38;5072478;28;20222;-78
2023/05/26 06:04:00;;;;;;;2.80;2.00;;;;;;;18.54;100.00;99290.81;5072032;28;20204;-78
2023/05/26 06:06:27;;;;;;;3.20;1.70;;;;;;;18.69;100.00;99294.41;5074877;28;20849;-78
2023/05/26 06:08:53;;;;;;;2.63;1.70;;;;;;;18.66;100.00;99297.31;5073590;28;20683;-78
2023/05/26 06:11:21;;;;;;;5.67;2.10;;;;;;;18.73;100.00;99300.06;5073519;28;20219;-78
2023/05/26 06:13:47;;;;;;;2.90;2.10;;;;;;;18.81;100.00;99296.72;5072931;28;20230;-79
2023/05/26 06:16:15;;;;;;;2.73;2.10;;;;;;;18.83;100.00;99298.19;5073542;28;20220;-78
2023/05/26 06:18:43;;;;;;;2.27;2.00;;;;;;;18.95;100.00;99296.13;5073130;28;20557;-78
2023/05/26 06:21:10;;;;;;;2.83;2.10;;;;;;;19.07;100.00;99299.22;5074046;28;20322;-78
2023/05/26 06:23:37;;;;;;;2.83;1.60;;;;;;;19.18;100.00;99304.91;5072389;28;20200;-78
2023/05/26 06:26:04;;;;;;;2.47;1.70;;;;;;;19.21;100.00;99301.97;5071868;28;20216;-79
2023/05/26 06:28:31;;;;;;;2.97;1.87;;;;;;;19.36;100.00;99296.16;5072483;28;20210;-78
2023/05/26 06:30:58;;;;;;;3.57;1.83;;;;;;;19.38;100.00;99299.41;5074117;28;20230;-79
2023/05/26 06:33:24;;;;;;;2.37;1.90;;;;;;;19.58;100.00;99295.50;5073719;28;20194;-79
2023/05/26 06:35:53;;;;;;;3.00;2.10;;;;;;;19.68;100.00;99301.34;5072168;28;20229;-78
2023/05/26 06:38:20;;;;;;;2.70;1.87;;;;;;;19.87;100.00;99300.19;5074206;28;20202;-78
2023/05/26 06:40:46;;;;;;;3.37;2.20;;;;;;;19.94;100.00;99313.31;5072391;28;20230;-78
2023/05/26 06:43:13;;;;;;;2.33;2.03;;;;;;;20.07;100.00;99305.81;5073700;28;20578;-79
2023/05/26 06:45:40;;;;;;;5.60;2.47;;;;;;;20.31;100.00;99319.72;5073248;28;20217;-79
2023/05/26 06:48:07;;;;;;;3.47;2.50;;;;;;;20.47;100.00;99321.41;5072653;28;20248;-78
2023/05/26 06:50:34;;;;;;;3.47;2.13;;;;;;;20.80;100.00;99319.53;5073238;28;20224;-78
2023/05/26 06:53:02;;;;;;;3.87;2.30;;;;;;;21.38;100.00;99325.16;5072625;28;20229;-79
2023/05/26 06:55:29;;;;;;;4.13;2.43;;;;;;;21.80;100.00;99324.63;5072087;28;20230;-79
2023/05/26 06:57:56;;;;;;;2.63;1.87;;;;;;;22.07;98.60;99325.03;5072818;28;20293;-78
2023/05/26 07:00:23;;;;;;;3.53;2.07;;;;;;;22.09;96.31;99318.66;5073892;28;20233;-78
2023/05/26 07:02:50;;;;;;;3.63;2.37;;;;;;;22.24;94.66;99320.47;5072830;28;20202;-78
2023/05/26 07:05:16;;;;;;;3.03;2.15;;;;;;;22.10;92.42;99325.47;5073985;28;20226;-78
2023/05/26 07:07:43;;;;;;;2.58;1.90;;;;;;;22.17;93.98;99325.59;5077624;28;20233;-79
2023/05/26 07:10:12;;;;;;;2.80;1.98;;;;;;;22.43;96.69;99324.31;5077017;28;20280;-79
2023/05/26 07:12:41;;;;;;;2.33;1.60;;;;;;;22.68;94.58;99327.44;5076523;28;20195;-79
2023/05/26 07:15:09;;;;;;;2.78;1.85;;;;;;;22.83;89.26;99321.19;5076437;28;20237;-79
2023/05/26 07:17:35;;;;;;;3.35;2.17;;;;;;;22.80;88.84;99318.94;5076109;28;20198;-79
2023/05/26 07:20:02;;;;;;;3.10;2.20;;;;;;;23.08;88.91;99314.84;5077211;28;20218;-79
2023/05/26 07:22:29;;;;;;;2.70;1.85;;;;;;;23.30;89.30;99315.63;5075642;28;20206;-79
2023/05/26 07:24:56;;;;;;;3.30;2.00;;;;;;;23.30;87.76;99326.06;5076758;28;20518;-79
2023/05/26 07:27:25;;;;;;;4.60;2.20;;;;;;;23.58;92.06;99323.50;5075668;28;20242;-79
2023/05/26 07:29:51;;;;;;;2.78;1.90;;;;;;;23.66;88.84;99326.78;5077689;28;20221;-79
2023/05/26 07:32:18;;;;;;;2.20;1.85;;;;;;;23.63;86.83;99327.16;5075902;28;20195;-79
2023/05/26 07:34:45;;;;;;;3.83;2.42;;;;;;;23.75;86.58;99327.47;5078132;28;20227;-79
2023/05/26 07:37:12;;;;;;;2.47;1.77;;;;;;;24.07;84.34;99336.53;5076137;28;20277;-79
2023/05/26 07:39:39;;;;;;;2.35;1.88;;;;;;;24.04;84.98;99338.72;5078230;28;20218;-79
2023/05/26 07:42:06;;;;;;;3.03;2.00;;;;;;;23.82;80.81;99338.75;5077348;28;20198;-79
2023/05/26 07:44:35;;;;;;;4.53;2.40;;;;;;;23.92;81.86;99335.84;5075766;28;20727;-79
2023/05/26 07:47:01;;;;;;;3.88;2.03;;;;;;;23.64;80.72;99341.03;5075634;28;20234;-78
2023/05/26 07:49:28;;;;;;;4.63;2.25;;;;;;;23.69;82.82;99330.81;5077503;28;20206;-78
2023/05/26 07:51:55;;;;;;;2.97;1.85;;;;;;;23.67;84.40;99336.22;5076586;28;20205;-78
2023/05/26 07:54:22;;;;;;;2.72;2.13;;;;;;;23.64;83.67;99327.97;5075705;28;20199;-79
2023/05/26 07:56:49;;;;;;;2.40;1.88;;;;;;;23.58;82.61;99331.34;5076537;28;20231;-78
2023/05/26 07:59:16;;;;;;;2.92;2.20;;;;;;;23.38;85.33;99331.16;5079231;28;20202;-78
2023/05/26 08:01:45;;;;;;;2.10;1.90;;;;;;;23.41;85.86;99328.19;5076278;28;20214;-78
2023/05/26 08:04:12;;;;;;;3.38;1.98;;;;;;;23.70;86.27;99322.00;5077013;28;20207;-79
2023/05/26 08:06:39;;;;;;;2.22;1.92;;;;;;;23.79;84.01;99322.69;5077609;28;20234;-78
2023/05/26 08:09:06;;;;;;;3.85;2.30;;;;;;;24.06;84.35;99321.88;5076693;28;20199;-79
2023/05/26 08:11:32;;;;;;;3.00;2.33;;;;;;;24.16;83.81;99317.09;5075290;28;20215;-79
2023/05/26 08:13:59;;;;;;;3.78;2.33;;;;;;;24.40;82.26;99323.66;5076104;28;20199;-79
2023/05/26 08:16:26;;;;;;;8.10;2.10;;;;;;;24.67;82.99;99322.94;5075568;28;20225;-78
2023/05/26 08:18:55;;;;;;;2.67;2.10;;;;;;;24.95;83.83;99331.47;5073728;28;20376;-77
2023/05/26 08:21:21;;;;;;;2.92;2.13;;;;;;;25.10;78.28;99328.69;5072225;28;20225;-77
2023/05/26 08:23:48;;;;;;;3.80;2.15;;;;;;;25.14;79.17;99329.16;5072256;28;20202;-78
2023/05/26 08:26:15;;;;;;;2.42;2.15;;;;;;;25.20;77.39;99323.09;5072035;28;20215;-77
2023/05/26 08:28:42;;;;;;;3.10;1.92;;;;;;;25.43;77.82;99326.13;5071901;28;20230;-78
2023/05/26 08:31:09;;;;;;;2.88;2.30;;;;;;;24.49;75.60;99326.09;5071683;28;20260;-77
2023/05/26 08:33:36;;;;;;;2.70;1.95;;;;;;;24.62;79.66;99332.19;5071950;28;20198;-77
2023/05/26 08:36:04;;;;;;;3.45;2.30;;;;;;;24.98;77.57;99331.06;5071797;28;20299;-78
2023/05/26 08:38:31;;;;;;;2.75;1.88;;;;;;;25.04;76.59;99340.75;5071832;28;20198;-77
2023/05/26 08:41:02;;;;;;;2.47;2.00;;;;;;;25.20;80.57;99330.97;5071823;28;20313;-77
2023/05/26 08:43:36;;;;;;;2.95;2.10;;;;;;;25.16;76.35;99340.19;5077340;28;20221;-78
2023/05/26 08:46:04;;;;;;;5.10;2.00;;;;;;;25.18;77.65;99335.56;5079162;28;20229;-78
2023/05/26 08:48:31;;;;;;;5.30;3.00;;;;;;;25.25;78.15;99331.19;5077433;28;20288;-78
2023/05/26 08:51:01;;;;;;;2.90;2.20;;;;;;;25.03;75.67;99333.91;5075862;28;20222;-78
2023/05/26 08:53:31;;;;;;;6.30;3.50;;;;;;;24.99;77.57;99327.47;5076869;28;20229;-79
2023/05/26 08:56:00;;;;;;;6.20;2.42;;;;;;;24.89;69.46;99336.69;5075636;28;20229;-78
2023/05/26 08:58:27;;;;;;;4.68;2.30;;;;;;;25.05;78.27;99324.06;5077672;28;20195;-78
2023/05/26 09:00:56;;;;;;;5.78;3.00;;;;;;;25.22;80.04;99331.53;5074537;28;20623;-78
2023/05/26 09:03:22;;;;;;;2.75;2.20;;;;;;;25.30;78.04;99329.53;5075316;28;20210;-78
2023/05/26 09:05:49;;;;;;;4.63;2.60;;;;;;;25.47;81.67;99324.72;5077434;28;20219;-78
2023/05/26 09:08:16;;;;;;;3.33;2.28;;;;;;;25.76;75.97;99325.31;5075686;28;20231;-79
2023/05/26 09:10:44;;;;;;;3.75;2.05;;;;;;;26.21;77.49;99322.84;5076785;28;20223;-78
2023/05/26 09:13:13;;;;;;;2.40;1.80;;;;;;;26.72;77.26;99326.47;5076199;28;20203;-79
2023/05/26 09:15:41;;;;;;;3.53;2.50;;;;;;;26.79;72.67;99332.47;5077229;28;20312;-78
2023/05/26 09:18:08;;;;;;;2.45;2.00;;;;;;;26.74;72.88;99333.13;5075140;28;20679;-79
2023/05/26 09:20:39;;;;;;;2.78;2.10;;;;;;;26.62;69.83;99329.56;5077201;28;20229;-79
2023/05/26 09:23:06;;;;;;;2.88;1.90;;;;;;;26.45;70.06;99323.16;5074608;28;20426;-79
2023/05/26 09:25:35;;;;;;;2.47;1.70;;;;;;;26.24;70.55;99325.03;5073632;28;20226;-78
2023/05/26 09:28:06;;;;;;;9.90;2.25;;;;;;;26.34;68.90;99320.16;5074196;28;20237;-80
2023/05/26 09:30:36;;;;;;;2.90;2.20;;;;;;;26.34;67.77;99322.78;5072682;28;20400;-80
2023/05/26 09:33:04;;;;;;;3.40;2.30;;;;;;;26.36;66.69;99318.13;5072875;28;20590;-80
2023/05/26 09:35:36;;;;;;;5.20;2.40;;;;;;;26.31;67.24;99325.81;5071844;28;20218;-80
2023/05/26 09:38:05;;;;;;;2.50;1.80;;;;;;;26.23;65.98;99322.63;5072921;28;20207;-80
2023/05/26 09:40:32;;;;;;;3.20;1.80;;;;;;;26.10;64.57;99315.59;5072403;28;20314;-80
2023/05/26 09:43:00;;;;;;;2.20;1.98;;;;;;;26.18;65.39;99310.94;5072871;28;20218;-79
2023/05/26 09:45:35;;;;;;;3.47;2.10;;;;;;;26.42;66.31;99306.81;5072209;28;20231;-80
2023/05/26 09:48:03;;;;;;;2.50;1.90;;;;;;;26.76;66.75;99302.25;5071813;28;20237;-80
2023/05/26 09:50:31;;;;;;;2.30;1.90;;;;;;;27.21;66.98;99304.00;5072164;28;20726;-80
2023/05/26 09:53:00;;;;;;;2.55;1.98;;;;;;;27.47;63.20;99302.97;5071944;28;20300;-80
2023/05/26 09:55:26;;;;;;;2.13;1.92;;;;;;;27.72;62.79;99298.50;5072245;28;20218;-80
2023/05/26 09:57:54;;;;;;;2.50;2.08;;;;;;;27.91;60.51;99293.28;5072149;28;20214;-80
2023/05/26 10:00:22;;;;;;;4.57;2.72;;;;;;;27.96;60.54;99296.06;5072242;28;20226;-80
2023/05/26 10:02:51;;;;;;;2.88;2.10;;;;;;;28.09;62.44;99295.91;5072239;28;20680;-80
2023/05/26 10:05:18;;;;;;;2.30;1.95;;;;;;;28.40;58.82;99296.75;5071661;28;20702;-80
2023/05/26 10:07:46;;;;;;;2.80;2.25;;;;;;;28.67;58.27;99291.97;5071270;28;20337;-80
2023/05/26 10:10:14;;;;;;;2.47;2.03;;;;;;;28.66;51.71;99291.19;5071553;28;20613;-80
2023/05/26 10:12:42;;;;;;;2.80;2.05;;;;;;;28.69;57.09;99286.50;5071398;28;20226;-80
2023/05/26 10:15:10;;;;;;;4.25;2.47;;;;;;;28.79;58.22;99284.09;5071849;28;20301;-80
2023/05/26 10:17:38;;;;;;;2.50;2.05;;;;;;;28.80;56.11;99291.00;5071783;28;20205;-80
2023/05/26 10:20:08;;;;;;;2.83;2.13;;;;;;;28.82;54.85;99283.66;5070889;28;20218;-80
2023/05/26 10:22:45;;;;;;;2.80;2.38;;;;;;;28.83;54.29;99280.03;5071326;28;20195;-80
2023/05/26 10:25:21;;;;;;;2.42;2.03;;;;;;;28.86;58.97;99274.31;5071721;28;20293;-80
2023/05/26 10:27:59;;;;;;;3.55;2.30;;;;;;;28.77;58.03;99265.09;5071063;28;20230;-80
2023/05/26 10:30:27;;;;;;;2.75;2.38;;;;;;;28.81;56.26;99266.28;5071167;28;20229;-81
2023/05/26 10:32:55;;;;;;;2.33;2.13;;;;;;;28.83;57.76;99258.97;5071773;28;20210;-80
2023/05/26 10:35:28;;;;;;;4.40;2.40;;;;;;;28.64;54.50;99256.38;5070765;28;20385;-80
2023/05/26 10:37:58;;;;;;;2.92;2.30;;;;;;;28.72;54.96;99257.09;5071550;28;20238;-80
2023/05/26 10:40:30;;;;;;;3.90;2.30;;;;;;;28.75;58.09;99256.66;5070561;28;20229;-80
2023/05/26 10:43:01;;;;;;;4.43;2.13;;;;;;;28.52;55.12;99247.66;5071613;28;20207;-81
2023/05/26 10:45:32;;;;;;;3.35;2.30;;;;;;;28.67;55.23;99250.66;5070865;28;20223;-81
2023/05/26 10:48:07;;;;;;;2.03;1.77;;;;;;;28.86;56.25;99242.72;5070847;28;20288;-80
2023/05/26 10:51:10;;;;;;;3.60;2.35;;;;;;;28.70;56.99;99248.63;5071281;28;20291;-80
2023/05/26 10:53:42;;;;;;;2.83;2.17;;;;;;;28.79;60.01;99232.28;5071560;28;20282;-80
2023/05/26 10:56:12;;;;;;;3.17;2.30;;;;;;;28.53;55.44;99233.47;5071722;28;20680;-79
2023/05/26 10:58:41;;;;;;;2.83;2.30;;;;;;;28.36;59.81;99235.09;5071506;28;20615;-80
2023/05/26 11:01:11;;;;;;;2.40;2.05;;;;;;;28.60;58.13;99222.88;5071148;28;20614;-81
2023/05/26 11:03:41;;;;;;;2.55;2.05;;;;;;;28.71;58.52;99223.91;5071010;28;20225;-81
2023/05/26 11:06:11;;;;;;;4.15;2.50;;;;;;;28.48;56.83;99225.47;5071625;28;20835;-80
2023/05/26 11:08:40;;;;;;;3.08;2.47;;;;;;;28.63;58.08;99223.22;5071282;28;20312;-80
2023/05/26 11:11:08;;;;;;;3.08;2.20;;;;;;;28.66;56.01;99217.50;5070159;28;20241;-80
2023/05/26 11:13:46;;;;;;;3.35;2.22;;;;;;;28.63;56.33;99202.16;5071999;28;20199;-80
2023/05/26 11:16:18;;;;;;;3.67;2.10;;;;;;;28.77;58.35;99196.69;5070627;28;20245;-80
2023/05/26 11:18:49;;;;;;;3.60;2.40;;;;;;;28.96;56.64;99205.31;5071322;28;20199;-80
2023/05/26 11:21:19;;;;;;;3.58;2.40;;;;;;;29.15;55.17;99193.69;5070725;28;20211;-80
2023/05/26 11:23:46;;;;;;;3.13;2.20;;;;;;;29.33;55.34;99201.44;5071613;28;20639;-81
2023/05/26 11:26:15;;;;;;;2.15;1.85;;;;;;;29.26;53.36;99200.75;5070464;28;20710;-80
2023/05/26 11:28:44;;;;;;;4.00;2.25;;;;;;;28.90;53.71;99201.75;5070391;28;20239;-80
2023/05/26 11:31:15;;;;;;;2.80;2.20;;;;;;;28.53;56.30;99201.91;5071190;28;20230;-80
2023/05/26 11:33:44;;;;;;;4.32;2.60;;;;;;;28.43;57.02;99201.66;5071262;28;20213;-80